Terminal Aerodrome Forecast
Issued by NWS North Platte, NE

Home | Current Version | Previous Version | Text Only | Print | Product List | Glossary On
Versions: 1 2 3 4 5 6 7 8 9 10 11 12 13 14 15 16 17 18 19
000
FTUS43 KLBF 281100
TAFVTN
TAF
KVTN 281120Z 2812/2912 25006KT P6SM SCT200
     FM281900 29013G20KT P6SM BKN200
     FM290000 25008KT P6SM SCT200
     FM290600 25013KT P6SM SCT200=

USA.gov is the U.S. government's official web portal to all federal, state and local government web resources and services.